Time;durP1;ratioP1;P1;durP2;ratioP2;P2;SDS_P1;SDS_P2;PMS_P1;PMS_P2;Temp;Humidity;BMP_temperature;BMP_pressure;BME280_temperature;BME280_humidity;BME280_pressure;Samples;Min_cycle;Max_cycle;Signal;HPM_P1;HPM_P2
2023/08/20 00:00:45;;;;;;;3.10;3.00;;;;;;;;;;6235681;28;20593;-72
2023/08/20 00:03:49;;;;;;;2.75;2.65;;;;;;;;;;6234577;28;20295;-71
2023/08/20 00:06:53;;;;;;;4.35;2.80;;;;;;;;;;6235579;28;20541;-73
2023/08/20 00:09:57;;;;;;;2.22;2.13;;;;;;;;;;6235225;28;20295;-72
2023/08/20 00:13:01;;;;;;;2.75;2.70;;;;;;;;;;6234957;28;20300;-71
2023/08/20 00:16:07;;;;;;;3.08;2.70;;;;;;;;;;6235258;28;20301;-72
2023/08/20 00:19:11;;;;;;;2.40;2.22;;;;;;;;;;6235078;28;20469;-72
2023/08/20 00:22:16;;;;;;;2.28;2.28;;;;;;;;;;6235965;28;20292;-72
2023/08/20 00:25:20;;;;;;;2.10;1.98;;;;;;;;;;6235084;28;20296;-72
2023/08/20 00:28:24;;;;;;;2.63;2.53;;;;;;;;;;6235206;28;20618;-72
2023/08/20 00:31:30;;;;;;;2.40;2.20;;;;;;;;;;6235303;28;20301;-72
2023/08/20 00:34:35;;;;;;;2.30;2.20;;;;;;;;;;6234695;28;20413;-71
2023/08/20 00:37:38;;;;;;;2.50;2.30;;;;;;;;;;6250497;28;20309;-72
2023/08/20 00:40:42;;;;;;;2.22;2.15;;;;;;;;;;6249975;28;20307;-72
2023/08/20 00:43:46;;;;;;;3.20;2.53;;;;;;;;;;6258170;28;20408;-72
2023/08/20 00:46:51;;;;;;;2.55;2.45;;;;;;;;;;6258339;28;20308;-73
2023/08/20 00:49:55;;;;;;;2.08;2.05;;;;;;;;;;6242383;28;20297;-72
2023/08/20 00:52:59;;;;;;;2.38;2.15;;;;;;;;;;6241841;28;20303;-71
2023/08/20 00:56:03;;;;;;;3.22;2.20;;;;;;;;;;6258208;28;20280;-72
2023/08/20 00:59:07;;;;;;;2.47;2.38;;;;;;;;;;6242341;28;20440;-72
2023/08/20 01:02:12;;;;;;;2.30;2.20;;;;;;;;;;6243036;28;20290;-72
2023/08/20 01:05:16;;;;;;;2.22;2.10;;;;;;;;;;6257754;28;20301;-72
2023/08/20 01:08:29;;;;;;;2.15;2.15;;;;;;;;;;6257947;28;20292;-72
2023/08/20 01:11:38;;;;;;;2.17;2.17;;;;;;;;;;6242518;28;20292;-72
2023/08/20 01:14:42;;;;;;;2.53;2.45;;;;;;;;;;6257919;28;20585;-72
2023/08/20 01:17:47;;;;;;;2.40;2.30;;;;;;;;;;6242500;28;20308;-72
2023/08/20 01:20:56;;;;;;;2.28;2.28;;;;;;;;;;6240599;28;20288;-74
2023/08/20 01:24:11;;;;;;;6.07;2.00;;;;;;;;;;6242155;28;20316;-72
2023/08/20 01:27:30;;;;;;;2.83;2.38;;;;;;;;;;6242788;28;20284;-72
2023/08/20 01:30:36;;;;;;;3.63;2.50;;;;;;;;;;6241410;28;20300;-72
2023/08/20 01:33:40;;;;;;;2.28;2.20;;;;;;;;;;6242233;28;20292;-72
2023/08/20 01:36:44;;;;;;;2.40;2.40;;;;;;;;;;6243050;28;20297;-72
2023/08/20 01:39:48;;;;;;;2.17;2.15;;;;;;;;;;6242053;28;20292;-72
2023/08/20 01:42:52;;;;;;;2.20;2.13;;;;;;;;;;6242205;28;20482;-73
2023/08/20 01:45:57;;;;;;;1.90;1.90;;;;;;;;;;6257763;28;20291;-72
2023/08/20 01:49:01;;;;;;;1.90;1.90;;;;;;;;;;6242289;28;20609;-72
2023/08/20 01:52:05;;;;;;;2.28;2.28;;;;;;;;;;6258118;28;20299;-72
2023/08/20 01:55:09;;;;;;;2.53;2.42;;;;;;;;;;6237253;28;20304;-72
2023/08/20 01:58:13;;;;;;;2.25;2.25;;;;;;;;;;6253731;28;20529;-74
2023/08/20 02:01:18;;;;;;;4.53;2.15;;;;;;;;;;6253888;28;20296;-72
2023/08/20 02:04:22;;;;;;;2.30;2.20;;;;;;;;;;6253261;28;20296;-72
2023/08/20 02:07:25;;;;;;;1.90;1.90;;;;;;;;;;6238685;28;20292;-72
2023/08/20 02:10:29;;;;;;;1.90;1.80;;;;;;;;;;6237859;28;20553;-72
2023/08/20 02:13:34;;;;;;;1.98;1.98;;;;;;;;;;6237632;28;20296;-72
2023/08/20 02:16:39;;;;;;;1.90;1.90;;;;;;;;;;6253463;28;20300;-72
2023/08/20 02:19:43;;;;;;;1.95;1.83;;;;;;;;;;6237696;28;20300;-72
2023/08/20 02:22:47;;;;;;;2.38;2.25;;;;;;;;;;6238315;28;20302;-72
2023/08/20 02:25:51;;;;;;;2.13;2.13;;;;;;;;;;6237149;28;20345;-71
2023/08/20 02:28:57;;;;;;;1.95;1.85;;;;;;;;;;6252705;28;20292;-72
2023/08/20 02:32:02;;;;;;;2.10;2.10;;;;;;;;;;6236311;28;20277;-72
2023/08/20 02:35:06;;;;;;;1.75;1.75;;;;;;;;;;6237915;28;20601;-71
2023/08/20 02:38:11;;;;;;;2.38;2.38;;;;;;;;;;6239659;28;20288;-72
2023/08/20 02:41:16;;;;;;;2.15;2.13;;;;;;;;;;6254226;28;20264;-72
2023/08/20 02:44:20;;;;;;;2.20;2.10;;;;;;;;;;6252709;28;20304;-72
2023/08/20 02:47:25;;;;;;;2.20;1.80;;;;;;;;;;6237318;28;20296;-72
2023/08/20 02:50:29;;;;;;;2.20;2.10;;;;;;;;;;6236910;28;20296;-72
2023/08/20 02:53:33;;;;;;;2.25;2.15;;;;;;;;;;6252093;28;20288;-72
2023/08/20 02:56:37;;;;;;;3.40;1.92;;;;;;;;;;6237640;28;20296;-72
2023/08/20 02:59:40;;;;;;;2.10;2.10;;;;;;;;;;6237529;28;20463;-72
2023/08/20 03:02:46;;;;;;;1.95;1.95;;;;;;;;;;6237007;28;20368;-73
2023/08/20 03:05:50;;;;;;;2.75;2.47;;;;;;;;;;6251312;28;20297;-72
2023/08/20 03:08:54;;;;;;;2.80;1.92;;;;;;;;;;6236722;28;20291;-72
2023/08/20 03:11:58;;;;;;;1.67;1.67;;;;;;;;;;6252040;28;20296;-72
2023/08/20 03:15:02;;;;;;;2.00;2.00;;;;;;;;;;6236016;28;20292;-72
2023/08/20 03:18:08;;;;;;;2.10;2.00;;;;;;;;;;6251484;28;20296;-72
2023/08/20 03:21:12;;;;;;;1.80;1.80;;;;;;;;;;6236238;28;20318;-72
2023/08/20 03:24:15;;;;;;;2.20;2.00;;;;;;;;;;6251592;28;20296;-73
2023/08/20 03:27:20;;;;;;;1.85;1.75;;;;;;;;;;6236634;28;20289;-72
2023/08/20 03:30:23;;;;;;;2.00;1.90;;;;;;;;;;6234601;28;20296;-72
2023/08/20 03:33:28;;;;;;;2.03;2.03;;;;;;;;;;6251214;28;20296;-71
2023/08/20 03:36:33;;;;;;;2.08;1.90;;;;;;;;;;6251735;28;20304;-72
2023/08/20 03:39:37;;;;;;;1.80;1.80;;;;;;;;;;6251187;28;20303;-72
2023/08/20 03:42:40;;;;;;;2.00;1.90;;;;;;;;;;6251544;28;20304;-71
2023/08/20 03:45:45;;;;;;;1.80;1.80;;;;;;;;;;6251426;28;20481;-75
2023/08/20 03:48:50;;;;;;;2.08;2.00;;;;;;;;;;6235648;28;20292;-73
2023/08/20 03:51:54;;;;;;;1.83;1.83;;;;;;;;;;6235073;28;20288;-72
2023/08/20 03:54:58;;;;;;;1.80;1.80;;;;;;;;;;6251046;28;20300;-72
2023/08/20 03:58:02;;;;;;;2.28;1.90;;;;;;;;;;6235547;28;20594;-72
2023/08/20 04:01:06;;;;;;;1.85;1.85;;;;;;;;;;6251040;28;20284;-72
2023/08/20 04:04:11;;;;;;;2.05;2.05;;;;;;;;;;6249736;28;20347;-72
2023/08/20 04:07:15;;;;;;;2.00;2.00;;;;;;;;;;6235674;28;20305;-72
2023/08/20 04:10:19;;;;;;;1.63;1.63;;;;;;;;;;6250869;28;20303;-71
2023/08/20 04:13:23;;;;;;;1.70;1.70;;;;;;;;;;6251103;28;20296;-71
2023/08/20 04:16:30;;;;;;;1.60;1.60;;;;;;;;;;6251276;28;20292;-71
2023/08/20 04:19:35;;;;;;;2.15;1.65;;;;;;;;;;6234953;28;20296;-71
2023/08/20 04:22:40;;;;;;;2.17;2.10;;;;;;;;;;6240280;28;20289;-70
2023/08/20 04:25:44;;;;;;;1.70;1.70;;;;;;;;;;6256143;28;20300;-71
2023/08/20 04:28:51;;;;;;;1.80;1.70;;;;;;;;;;6256207;28;20312;-71
2023/08/20 04:31:55;;;;;;;1.80;1.70;;;;;;;;;;6252765;28;20595;-70
2023/08/20 04:35:00;;;;;;;1.70;1.70;;;;;;;;;;6250619;28;20474;-72
2023/08/20 04:38:04;;;;;;;1.77;1.67;;;;;;;;;;6251951;28;20296;-71
2023/08/20 04:41:08;;;;;;;2.08;1.83;;;;;;;;;;6250891;28;20307;-70
2023/08/20 04:44:13;;;;;;;1.80;1.80;;;;;;;;;;6250006;28;20289;-71
2023/08/20 04:47:18;;;;;;;1.70;1.70;;;;;;;;;;6250684;28;20304;-71
2023/08/20 04:50:23;;;;;;;1.70;1.70;;;;;;;;;;6250241;28;20284;-70
2023/08/20 04:53:28;;;;;;;1.60;1.60;;;;;;;;;;6234416;28;20284;-70
2023/08/20 04:56:33;;;;;;;1.92;1.83;;;;;;;;;;6250930;28;20376;-70
2023/08/20 04:59:36;;;;;;;1.75;1.65;;;;;;;;;;6250296;28;20291;-71
2023/08/20 05:02:56;;;;;;;1.63;1.63;;;;;;;;;;6249614;28;20296;-72
2023/08/20 05:06:02;;;;;;;1.65;1.55;;;;;;;;;;6233979;28;20308;-71
2023/08/20 05:09:05;;;;;;;1.80;1.80;;;;;;;;;;6249416;28;20300;-71
2023/08/20 05:12:10;;;;;;;1.80;1.70;;;;;;;;;;6234981;28;20295;-71
2023/08/20 05:15:14;;;;;;;1.92;1.70;;;;;;;;;;6249876;28;20480;-71
2023/08/20 05:18:18;;;;;;;1.63;1.63;;;;;;;;;;6249925;28;20293;-73
2023/08/20 05:21:24;;;;;;;1.67;1.58;;;;;;;;;;6250039;28;20569;-71
2023/08/20 05:24:29;;;;;;;1.50;1.50;;;;;;;;;;6249693;28;20457;-71
2023/08/20 05:27:33;;;;;;;1.50;1.50;;;;;;;;;;6233414;28;20300;-73
2023/08/20 05:30:40;;;;;;;1.60;1.60;;;;;;;;;;6237405;28;20321;-71
2023/08/20 05:33:44;;;;;;;2.17;1.63;;;;;;;;;;6253965;28;20600;-71
2023/08/20 05:36:50;;;;;;;1.70;1.60;;;;;;;;;;6254679;28;20300;-72
2023/08/20 05:39:55;;;;;;;1.80;1.80;;;;;;;;;;6254180;28;20296;-72
2023/08/20 05:42:59;;;;;;;1.60;1.60;;;;;;;;;;6254181;28;20297;-72
2023/08/20 05:46:03;;;;;;;1.60;1.60;;;;;;;;;;6254608;28;20529;-72
2023/08/20 05:49:06;;;;;;;1.67;1.67;;;;;;;;;;6254075;28;20299;-72
2023/08/20 05:52:13;;;;;;;1.70;1.70;;;;;;;;;;6254445;28;20589;-72
2023/08/20 05:55:19;;;;;;;1.95;1.60;;;;;;;;;;6254045;28;20292;-73
2023/08/20 05:58:23;;;;;;;1.92;1.83;;;;;;;;;;6253419;28;20293;-71
2023/08/20 06:01:27;;;;;;;1.58;1.58;;;;;;;;;;6254209;28;20305;-72
2023/08/20 06:04:30;;;;;;;1.40;1.40;;;;;;;;;;6253019;28;20324;-72
2023/08/20 06:07:36;;;;;;;1.88;1.77;;;;;;;;;;6238174;28;20348;-73
2023/08/20 06:10:39;;;;;;;1.73;1.70;;;;;;;;;;6237920;28;20421;-72
2023/08/20 06:13:43;;;;;;;1.90;1.90;;;;;;;;;;6237430;28;20296;-72
2023/08/20 06:16:47;;;;;;;1.70;1.60;;;;;;;;;;6253958;28;20505;-72
2023/08/20 06:19:50;;;;;;;1.88;1.88;;;;;;;;;;6237652;28;20480;-72
2023/08/20 06:22:55;;;;;;;1.48;1.48;;;;;;;;;;6237582;28;20304;-72
2023/08/20 06:25:59;;;;;;;4.03;1.52;;;;;;;;;;6237456;28;20533;-72
2023/08/20 06:29:03;;;;;;;1.83;1.73;;;;;;;;;;6237474;28;20300;-72
2023/08/20 06:32:07;;;;;;;1.67;1.40;;;;;;;;;;6237858;28;20246;-72
2023/08/20 06:35:11;;;;;;;1.50;1.50;;;;;;;;;;6235737;28;20497;-71
2023/08/20 06:38:16;;;;;;;1.40;1.40;;;;;;;;;;6237042;28;20295;-72
2023/08/20 06:41:20;;;;;;;1.52;1.52;;;;;;;;;;6237235;28;20300;-72
2023/08/20 06:44:24;;;;;;;1.70;1.70;;;;;;;;;;6237249;28;20322;-72
2023/08/20 06:47:27;;;;;;;1.40;1.40;;;;;;;;;;6237088;28;20291;-72
2023/08/20 06:50:31;;;;;;;1.90;1.83;;;;;;;;;;6236859;28;20292;-72
2023/08/20 06:53:36;;;;;;;1.50;1.50;;;;;;;;;;6236897;28;20296;-71
2023/08/20 06:56:40;;;;;;;2.22;1.60;;;;;;;;;;6253134;28;20289;-72
2023/08/20 06:59:43;;;;;;;1.42;1.38;;;;;;;;;;6236689;28;20296;-72
2023/08/20 07:02:47;;;;;;;1.70;1.70;;;;;;;;;;6236082;28;20308;-72
2023/08/20 07:05:51;;;;;;;1.70;1.70;;;;;;;;;;6237198;28;20292;-72
2023/08/20 07:08:56;;;;;;;1.90;1.80;;;;;;;;;;6236821;28;20287;-72
2023/08/20 07:12:00;;;;;;;1.90;1.70;;;;;;;;;;6237222;28;20292;-72
2023/08/20 07:15:05;;;;;;;1.70;1.50;;;;;;;;;;6236649;28;20301;-72
2023/08/20 07:18:12;;;;;;;1.60;1.60;;;;;;;;;;6236257;28;20305;-71
2023/08/20 07:21:16;;;;;;;1.60;1.50;;;;;;;;;;6236738;28;20365;-73
2023/08/20 07:24:25;;;;;;;2.47;1.60;;;;;;;;;;6236805;28;20292;-71
2023/08/20 07:27:29;;;;;;;1.67;1.55;;;;;;;;;;6236503;28;20369;-71
2023/08/20 07:30:32;;;;;;;1.63;1.63;;;;;;;;;;6236248;28;20297;-71
2023/08/20 07:33:36;;;;;;;1.45;1.45;;;;;;;;;;6236039;28;20291;-70
2023/08/20 07:36:40;;;;;;;1.60;1.60;;;;;;;;;;6237530;28;20300;-72
2023/08/20 07:39:45;;;;;;;1.98;1.80;;;;;;;;;;6235753;28;20297;-71
2023/08/20 07:42:50;;;;;;;2.80;1.83;;;;;;;;;;6235806;28;20304;-70
2023/08/20 07:45:54;;;;;;;1.65;1.65;;;;;;;;;;6236187;28;20408;-72
2023/08/20 07:48:57;;;;;;;1.70;1.70;;;;;;;;;;6235388;28;20344;-72
2023/08/20 07:52:02;;;;;;;1.85;1.80;;;;;;;;;;6235472;28;20292;-71
2023/08/20 07:55:08;;;;;;;1.83;1.83;;;;;;;;;;6235132;28;20297;-71
2023/08/20 07:58:12;;;;;;;1.63;1.63;;;;;;;;;;6235369;28;20288;-72
2023/08/20 08:01:16;;;;;;;2.00;1.90;;;;;;;;;;6235874;28;20300;-69
2023/08/20 08:04:20;;;;;;;3.05;2.17;;;;;;;;;;6234980;28;20308;-70
2023/08/20 08:07:24;;;;;;;2.20;2.20;;;;;;;;;;6235838;28;20568;-74
2023/08/20 08:10:29;;;;;;;2.28;2.08;;;;;;;;;;6235478;28;20299;-72
2023/08/20 08:13:33;;;;;;;2.78;2.10;;;;;;;;;;6235225;28;20296;-72
2023/08/20 08:16:37;;;;;;;4.40;2.25;;;;;;;;;;6235617;28;20291;-72
2023/08/20 08:19:40;;;;;;;2.08;1.95;;;;;;;;;;6234684;28;20307;-72
2023/08/20 08:22:44;;;;;;;4.00;2.30;;;;;;;;;;6234635;28;20383;-73
2023/08/20 08:25:49;;;;;;;2.97;2.00;;;;;;;;;;6234969;28;20620;-71
2023/08/20 08:28:53;;;;;;;2.30;2.03;;;;;;;;;;6250386;28;20305;-73
2023/08/20 08:31:57;;;;;;;2.30;2.20;;;;;;;;;;6235504;28;20300;-71
2023/08/20 08:35:00;;;;;;;2.20;2.05;;;;;;;;;;6234167;28;20289;-71
2023/08/20 08:38:04;;;;;;;2.10;2.10;;;;;;;;;;6234661;28;20301;-71
2023/08/20 08:41:11;;;;;;;2.40;2.10;;;;;;;;;;6234946;28;20240;-72
2023/08/20 08:44:15;;;;;;;2.10;2.00;;;;;;;;;;6234741;28;20295;-72
2023/08/20 08:47:20;;;;;;;3.45;2.25;;;;;;;;;;6232602;28;20288;-72
2023/08/20 08:50:24;;;;;;;2.40;2.30;;;;;;;;;;6249777;28;20336;-73
2023/08/20 08:53:28;;;;;;;2.13;2.03;;;;;;;;;;6234464;28;20493;-72
2023/08/20 08:56:33;;;;;;;2.60;2.40;;;;;;;;;;6235333;28;20300;-71
2023/08/20 08:59:37;;;;;;;2.33;2.22;;;;;;;;;;6234727;28;20288;-72
2023/08/20 09:02:40;;;;;;;2.83;2.42;;;;;;;;;;6236377;28;20296;-72
2023/08/20 09:05:48;;;;;;;2.20;2.10;;;;;;;;;;6238164;28;20384;-72
2023/08/20 09:09:05;;;;;;;2.20;2.05;;;;;;;;;;6238995;28;20384;-71
2023/08/20 09:12:16;;;;;;;2.13;2.03;;;;;;;;;;6239415;28;20332;-71
2023/08/20 09:15:19;;;;;;;3.80;2.10;;;;;;;;;;6239320;28;20300;-71
2023/08/20 09:18:23;;;;;;;2.45;2.30;;;;;;;;;;6239481;28;20292;-73
2023/08/20 09:21:29;;;;;;;2.40;2.30;;;;;;;;;;6239633;28;20287;-71
2023/08/20 09:24:35;;;;;;;3.00;2.45;;;;;;;;;;6239099;28;20289;-74
2023/08/20 09:27:42;;;;;;;2.58;2.47;;;;;;;;;;6239119;28;20292;-73
2023/08/20 09:30:58;;;;;;;3.42;3.33;;;;;;;;;;6255325;28;20461;-72
2023/08/20 09:34:02;;;;;;;3.35;3.25;;;;;;;;;;6237186;28;20362;-70
2023/08/20 09:37:09;;;;;;;2.40;2.30;;;;;;;;;;6238873;28;20585;-70
2023/08/20 09:40:13;;;;;;;2.88;2.80;;;;;;;;;;6238657;28;20292;-69
2023/08/20 09:43:19;;;;;;;2.55;2.45;;;;;;;;;;6238408;28;20293;-72
2023/08/20 09:46:25;;;;;;;4.32;2.35;;;;;;;;;;6238906;28;20491;-73
2023/08/20 09:49:31;;;;;;;2.50;2.45;;;;;;;;;;6237896;28;20300;-71
2023/08/20 09:52:40;;;;;;;3.08;2.60;;;;;;;;;;6238466;28;20323;-73
2023/08/20 09:55:44;;;;;;;6.28;2.58;;;;;;;;;;6239098;28;20297;-72
2023/08/20 09:58:51;;;;;;;2.25;2.20;;;;;;;;;;6238436;28;20316;-73
2023/08/20 10:01:56;;;;;;;2.50;2.38;;;;;;;;;;6254695;28;20576;-74
2023/08/20 10:05:02;;;;;;;2.40;2.40;;;;;;;;;;6237432;28;20580;-74
2023/08/20 10:08:07;;;;;;;2.40;2.40;;;;;;;;;;6238099;28;20296;-73
2023/08/20 10:11:11;;;;;;;3.47;3.17;;;;;;;;;;6238456;28;20245;-71
2023/08/20 10:14:16;;;;;;;2.78;2.67;;;;;;;;;;6237405;28;20288;-73
2023/08/20 10:17:20;;;;;;;4.18;2.72;;;;;;;;;;6237964;28;20304;-72
2023/08/20 10:20:24;;;;;;;2.42;2.30;;;;;;;;;;6237802;28;20295;-71
2023/08/20 10:23:28;;;;;;;2.55;2.33;;;;;;;;;;6237423;28;20343;-72
2023/08/20 10:26:34;;;;;;;2.72;2.60;;;;;;;;;;6237882;28;20312;-72
2023/08/20 10:29:41;;;;;;;2.90;2.65;;;;;;;;;;6237081;28;20289;-71
2023/08/20 10:32:47;;;;;;;2.53;2.53;;;;;;;;;;6237030;28;20300;-73
2023/08/20 10:35:51;;;;;;;2.85;2.75;;;;;;;;;;6237676;28;20312;-72
2023/08/20 10:38:56;;;;;;;3.90;2.28;;;;;;;;;;6237333;28;20296;-74
2023/08/20 10:42:12;;;;;;;2.30;2.20;;;;;;;;;;6237534;28;20293;-73
2023/08/20 10:45:17;;;;;;;2.40;2.40;;;;;;;;;;6235776;28;20288;-73
2023/08/20 10:48:21;;;;;;;2.72;2.53;;;;;;;;;;6236902;28;20305;-72
2023/08/20 10:51:27;;;;;;;2.63;2.58;;;;;;;;;;6237202;28;20304;-76
2023/08/20 10:54:31;;;;;;;4.28;2.35;;;;;;;;;;6236894;28;20289;-72
2023/08/20 10:57:35;;;;;;;2.60;2.47;;;;;;;;;;6237485;28;20297;-73
2023/08/20 11:00:41;;;;;;;2.20;2.20;;;;;;;;;;6236410;28;20288;-72
2023/08/20 11:03:46;;;;;;;2.63;2.53;;;;;;;;;;6251776;28;20483;-74
2023/08/20 11:06:51;;;;;;;2.33;2.33;;;;;;;;;;6237151;28;20296;-73
2023/08/20 11:09:56;;;;;;;2.10;2.10;;;;;;;;;;6251653;28;20479;-72
2023/08/20 11:13:03;;;;;;;2.10;2.08;;;;;;;;;;6236639;28;20288;-73
2023/08/20 11:21:53;;;;;;;2.60;2.40;;;;;;;;;;6280283;28;20637;-70
2023/08/20 11:24:57;;;;;;;2.38;2.38;;;;;;;;;;6300710;28;20294;-70
2023/08/20 11:28:01;;;;;;;3.00;2.80;;;;;;;;;;6304079;28;20477;-68
2023/08/20 11:33:09;;;;;;;2.40;2.30;;;;;;;;;;6308164;27;20661;-71
2023/08/20 11:36:13;;;;;;;2.70;2.45;;;;;;;;;;6333473;28;20301;-70
2023/08/20 11:39:16;;;;;;;3.65;2.60;;;;;;;;;;6334640;28;20301;-70
2023/08/20 11:42:20;;;;;;;2.60;2.40;;;;;;;;;;6334182;28;20297;-68
2023/08/20 11:45:24;;;;;;;2.50;2.50;;;;;;;;;;6333405;28;20289;-72
2023/08/20 11:48:29;;;;;;;2.78;2.63;;;;;;;;;;6330708;28;20310;-71
2023/08/20 11:51:37;;;;;;;3.97;2.58;;;;;;;;;;6321616;28;20388;-72
2023/08/20 11:54:43;;;;;;;2.40;2.30;;;;;;;;;;6323769;27;20306;-72
2023/08/20 11:57:51;;;;;;;2.90;2.80;;;;;;;;;;6328257;28;20293;-70
2023/08/20 12:00:54;;;;;;;2.75;2.70;;;;;;;;;;6306079;28;20299;-70
2023/08/20 12:04:02;;;;;;;2.60;2.60;;;;;;;;;;6305052;28;20446;-70
2023/08/20 12:07:10;;;;;;;2.80;2.80;;;;;;;;;;6305468;28;20294;-70
2023/08/20 12:10:23;;;;;;;2.90;2.80;;;;;;;;;;6305476;28;20287;-72
2023/08/20 12:13:27;;;;;;;3.17;2.95;;;;;;;;;;6304620;28;20291;-74
2023/08/20 12:16:31;;;;;;;2.90;2.90;;;;;;;;;;6304040;28;20416;-72
2023/08/20 12:19:36;;;;;;;3.45;3.10;;;;;;;;;;6304985;28;20294;-74
2023/08/20 12:22:40;;;;;;;3.03;2.92;;;;;;;;;;6305189;28;20294;-72
2023/08/20 12:25:43;;;;;;;3.72;3.28;;;;;;;;;;6303647;28;20475;-72
2023/08/20 12:28:47;;;;;;;3.40;3.20;;;;;;;;;;6304649;28;20310;-74
2023/08/20 12:31:51;;;;;;;8.43;3.50;;;;;;;;;;6303948;28;20619;-73
2023/08/20 12:34:56;;;;;;;3.08;2.97;;;;;;;;;;6334698;28;20501;-72
2023/08/20 12:38:00;;;;;;;3.35;3.25;;;;;;;;;;6353498;28;20565;-74
2023/08/20 12:41:05;;;;;;;3.83;3.40;;;;;;;;;;6346625;28;20241;-70
2023/08/20 12:44:09;;;;;;;3.17;3.08;;;;;;;;;;6339255;28;20289;-73
2023/08/20 12:47:12;;;;;;;3.40;3.25;;;;;;;;;;6337873;28;20242;-76
2023/08/20 12:50:17;;;;;;;3.83;3.63;;;;;;;;;;6337621;28;20491;-70
2023/08/20 12:53:21;;;;;;;3.80;3.60;;;;;;;;;;6336921;28;20301;-73
2023/08/20 12:56:25;;;;;;;4.50;4.35;;;;;;;;;;6338174;28;20531;-72
2023/08/20 12:59:29;;;;;;;6.75;4.20;;;;;;;;;;6321401;28;20298;-76
2023/08/20 13:02:34;;;;;;;4.13;3.83;;;;;;;;;;6293939;28;20294;-74
2023/08/20 13:05:40;;;;;;;3.95;3.50;;;;;;;;;;6316811;28;20585;-70
2023/08/20 13:08:44;;;;;;;4.03;3.83;;;;;;;;;;6327665;28;20286;-73
2023/08/20 13:11:48;;;;;;;5.00;4.53;;;;;;;;;;6311774;28;20298;-73
2023/08/20 13:14:53;;;;;;;3.90;3.63;;;;;;;;;;6323294;28;20306;-72
2023/08/20 13:17:57;;;;;;;3.80;3.65;;;;;;;;;;6316737;28;20432;-72
2023/08/20 13:21:03;;;;;;;3.88;3.58;;;;;;;;;;6320850;28;20285;-73
2023/08/20 13:24:08;;;;;;;3.70;3.60;;;;;;;;;;6336431;28;20552;-72
2023/08/20 13:27:12;;;;;;;4.35;4.15;;;;;;;;;;6336726;28;20547;-71
2023/08/20 13:30:16;;;;;;;4.25;3.95;;;;;;;;;;6336151;28;20302;-72
2023/08/20 13:33:20;;;;;;;4.07;3.92;;;;;;;;;;6336509;28;20302;-72
2023/08/20 13:36:25;;;;;;;4.50;4.00;;;;;;;;;;6318624;28;20293;-72
2023/08/20 13:39:29;;;;;;;3.90;3.70;;;;;;;;;;6336653;28;20551;-72
2023/08/20 13:42:32;;;;;;;4.60;4.25;;;;;;;;;;6319161;28;20477;-72
2023/08/20 13:45:37;;;;;;;7.93;4.43;;;;;;;;;;6336170;28;20285;-72
2023/08/20 13:48:40;;;;;;;4.88;4.68;;;;;;;;;;6336911;28;20527;-71
2023/08/20 13:51:46;;;;;;;6.22;5.28;;;;;;;;;;6318272;28;20289;-71
2023/08/20 13:54:49;;;;;;;5.72;5.25;;;;;;;;;;6335426;28;20289;-71
2023/08/20 13:57:53;;;;;;;5.60;5.22;;;;;;;;;;6336477;28;20286;-72
2023/08/20 14:00:57;;;;;;;5.40;4.93;;;;;;;;;;6336853;28;20301;-72
2023/08/20 14:04:01;;;;;;;6.35;5.93;;;;;;;;;;6327876;28;20293;-72
2023/08/20 14:07:07;;;;;;;5.63;5.30;;;;;;;;;;6336758;28;20478;-71
2023/08/20 14:10:11;;;;;;;6.15;5.82;;;;;;;;;;6335981;28;20582;-71
2023/08/20 14:13:15;;;;;;;7.10;6.50;;;;;;;;;;6335576;28;20497;-72
2023/08/20 14:16:19;;;;;;;8.00;6.07;;;;;;;;;;6336368;28;20297;-72
2023/08/20 14:19:23;;;;;;;6.30;5.78;;;;;;;;;;6335376;28;20293;-71
2023/08/20 14:22:28;;;;;;;5.68;5.38;;;;;;;;;;6317470;28;20306;-72
2023/08/20 14:25:32;;;;;;;5.57;5.25;;;;;;;;;;6335436;28;20298;-73
2023/08/20 14:28:36;;;;;;;5.18;4.82;;;;;;;;;;6317218;28;20446;-72
2023/08/20 14:31:39;;;;;;;5.13;4.78;;;;;;;;;;6335370;28;20305;-71
2023/08/20 14:34:43;;;;;;;5.88;5.28;;;;;;;;;;6334977;28;20298;-71
2023/08/20 14:37:48;;;;;;;6.18;5.40;;;;;;;;;;6336081;28;20298;-71
2023/08/20 14:40:52;;;;;;;5.90;5.50;;;;;;;;;;6335235;28;20404;-71
2023/08/20 14:43:56;;;;;;;6.30;5.80;;;;;;;;;;6334750;28;20293;-71
2023/08/20 14:46:59;;;;;;;5.55;5.28;;;;;;;;;;6334219;28;20269;-71
2023/08/20 14:50:04;;;;;;;5.50;5.00;;;;;;;;;;6326816;28;20290;-72
2023/08/20 14:53:09;;;;;;;4.65;4.35;;;;;;;;;;6334571;28;20289;-71
2023/08/20 14:56:12;;;;;;;6.47;5.88;;;;;;;;;;6334821;28;20371;-71
2023/08/20 14:59:16;;;;;;;5.07;4.88;;;;;;;;;;6334558;28;20286;-71
2023/08/20 15:02:20;;;;;;;5.15;4.78;;;;;;;;;;6335238;28;20335;-71
2023/08/20 15:05:24;;;;;;;5.03;4.53;;;;;;;;;;6333646;28;20293;-71
2023/08/20 15:08:29;;;;;;;5.70;5.30;;;;;;;;;;6334549;28;20424;-72
2023/08/20 15:11:34;;;;;;;5.53;5.22;;;;;;;;;;6334095;28;20481;-73
2023/08/20 15:14:37;;;;;;;6.70;6.20;;;;;;;;;;6334088;28;20290;-72
2023/08/20 15:17:42;;;;;;;6.68;6.00;;;;;;;;;;6333695;28;20318;-74
2023/08/20 15:20:45;;;;;;;9.38;5.85;;;;;;;;;;6334544;28;20293;-73
2023/08/20 15:23:50;;;;;;;6.45;6.05;;;;;;;;;;6333636;28;20289;-73
2023/08/20 15:26:54;;;;;;;7.38;6.68;;;;;;;;;;6334282;28;20491;-73
2023/08/20 15:29:58;;;;;;;7.40;6.72;;;;;;;;;;6333627;28;20301;-73
2023/08/20 15:33:03;;;;;;;6.95;6.45;;;;;;;;;;6333870;28;20290;-74
2023/08/20 15:36:07;;;;;;;8.25;7.50;;;;;;;;;;6316018;28;20301;-73
2023/08/20 15:39:12;;;;;;;9.05;8.15;;;;;;;;;;6334127;28;20310;-74
2023/08/20 15:42:16;;;;;;;7.25;6.65;;;;;;;;;;6334439;28;20301;-72
2023/08/20 15:45:20;;;;;;;6.57;6.25;;;;;;;;;;6333965;28;20428;-73
2023/08/20 15:48:24;;;;;;;6.78;6.18;;;;;;;;;;6333493;28;20438;-70
2023/08/20 15:51:27;;;;;;;7.63;6.90;;;;;;;;;;6334539;28;20302;-72
2023/08/20 15:54:33;;;;;;;8.70;7.10;;;;;;;;;;6333635;28;20487;-73
2023/08/20 15:57:40;;;;;;;7.63;6.90;;;;;;;;;;6326332;28;20294;-71
2023/08/20 16:00:44;;;;;;;8.45;7.60;;;;;;;;;;6334137;28;20312;-73
2023/08/20 16:03:48;;;;;;;7.40;6.78;;;;;;;;;;6333689;28;20297;-73
2023/08/20 16:06:52;;;;;;;7.72;7.18;;;;;;;;;;6333910;28;20301;-70
2023/08/20 16:09:57;;;;;;;8.77;8.07;;;;;;;;;;6329824;28;20298;-71
2023/08/20 16:13:01;;;;;;;8.07;7.20;;;;;;;;;;6324559;28;20314;-71
2023/08/20 16:16:05;;;;;;;8.52;7.80;;;;;;;;;;6334037;28;20297;-71
2023/08/20 16:19:09;;;;;;;8.18;7.47;;;;;;;;;;6336615;28;20357;-72
2023/08/20 16:22:12;;;;;;;12.20;7.97;;;;;;;;;;6338312;28;20436;-71
2023/08/20 16:25:17;;;;;;;8.88;7.75;;;;;;;;;;6318218;28;20290;-70
2023/08/20 16:28:21;;;;;;;8.95;8.15;;;;;;;;;;6332576;28;20293;-70
2023/08/20 16:31:25;;;;;;;11.65;7.90;;;;;;;;;;6317479;28;20302;-71
2023/08/20 16:34:29;;;;;;;13.35;8.20;;;;;;;;;;6317836;28;20294;-71
2023/08/20 16:37:33;;;;;;;8.75;7.85;;;;;;;;;;6334466;28;20550;-71
2023/08/20 16:40:39;;;;;;;8.88;8.02;;;;;;;;;;6337252;28;20298;-72
2023/08/20 16:43:43;;;;;;;9.85;8.32;;;;;;;;;;6337140;28;20332;-71
2023/08/20 16:46:46;;;;;;;9.77;8.50;;;;;;;;;;6338037;28;20302;-71
2023/08/20 16:49:50;;;;;;;9.88;8.10;;;;;;;;;;6337268;28;20289;-72
2023/08/20 16:52:54;;;;;;;9.18;7.93;;;;;;;;;;6337377;28;20294;-72
2023/08/20 16:55:59;;;;;;;8.80;7.90;;;;;;;;;;6330988;28;20293;-71
2023/08/20 16:59:03;;;;;;;9.07;8.18;;;;;;;;;;6335885;28;20293;-73
2023/08/20 17:02:07;;;;;;;9.95;8.93;;;;;;;;;;6318776;28;20274;-72
2023/08/20 17:05:10;;;;;;;9.15;8.10;;;;;;;;;;6336868;28;20354;-72
2023/08/20 17:08:14;;;;;;;10.95;8.38;;;;;;;;;;6336718;28;20578;-72
2023/08/20 17:11:19;;;;;;;9.80;8.38;;;;;;;;;;6333161;28;20301;-72
2023/08/20 17:14:23;;;;;;;10.40;7.80;;;;;;;;;;6336471;28;20301;-72
2023/08/20 17:17:29;;;;;;;11.55;8.90;;;;;;;;;;6337033;28;20290;-72
2023/08/20 17:20:36;;;;;;;9.27;7.97;;;;;;;;;;6336620;28;20293;-73
2023/08/20 17:23:40;;;;;;;11.30;8.73;;;;;;;;;;6337003;28;20298;-72
2023/08/20 17:26:45;;;;;;;9.50;8.60;;;;;;;;;;6337000;28;20293;-72
2023/08/20 17:29:49;;;;;;;8.93;8.13;;;;;;;;;;6336385;28;20293;-71
2023/08/20 17:32:53;;;;;;;10.27;9.13;;;;;;;;;;6336531;28;20298;-71
2023/08/20 17:35:56;;;;;;;12.00;8.75;;;;;;;;;;6336979;28;20293;-72
2023/08/20 17:39:00;;;;;;;10.70;9.55;;;;;;;;;;6336443;28;20289;-73
2023/08/20 17:42:05;;;;;;;13.38;9.55;;;;;;;;;;6336525;28;20344;-72
2023/08/20 17:45:10;;;;;;;16.33;10.45;;;;;;;;;;6336198;28;20301;-71
2023/08/20 17:48:14;;;;;;;12.00;9.50;;;;;;;;;;6335951;28;20278;-72
2023/08/20 17:51:18;;;;;;;11.80;9.70;;;;;;;;;;6336441;28;20289;-71
2023/08/20 17:54:22;;;;;;;12.68;10.02;;;;;;;;;;6335968;28;20318;-71
2023/08/20 17:57:27;;;;;;;16.25;9.88;;;;;;;;;;6336163;28;20301;-73
2023/08/20 18:00:31;;;;;;;16.08;10.23;;;;;;;;;;6336080;28;20297;-72
2023/08/20 18:03:35;;;;;;;15.50;10.27;;;;;;;;;;6336065;28;20489;-76
2023/08/20 18:06:39;;;;;;;16.60;10.57;;;;;;;;;;6336752;28;20290;-72
2023/08/20 18:09:43;;;;;;;12.43;10.32;;;;;;;;;;6335699;28;20290;-73
2023/08/20 18:12:48;;;;;;;14.57;10.88;;;;;;;;;;6335775;28;20586;-73
2023/08/20 18:15:52;;;;;;;15.05;9.90;;;;;;;;;;6336365;28;20297;-72
2023/08/20 18:18:55;;;;;;;11.60;9.30;;;;;;;;;;6335439;28;20297;-72
2023/08/20 18:21:59;;;;;;;14.10;10.27;;;;;;;;;;6335915;28;20293;-71
2023/08/20 18:25:03;;;;;;;13.70;9.93;;;;;;;;;;6335687;28;20293;-72
2023/08/20 18:28:08;;;;;;;14.68;9.77;;;;;;;;;;6335633;28;20285;-73
2023/08/20 18:31:12;;;;;;;9.20;8.30;;;;;;;;;;6335846;28;20467;-71